sensor_id;sensor_type;location;lat;lon;timestamp;pressure;altitude;pressure_sealevel;temperature;humidity
11041;BME280;5573;49.592;8.662;2024-02-26T00:00:42;97906.41;;;8.36;67.16
11041;BME280;5573;49.592;8.662;2024-02-26T00:03:13;97905.06;;;8.34;65.92
11041;BME280;5573;49.592;8.662;2024-02-26T00:05:42;97896.28;;;8.33;67.15
11041;BME280;5573;49.592;8.662;2024-02-26T00:08:10;97894.00;;;8.42;65.67
11041;BME280;5573;49.592;8.662;2024-02-26T00:10:37;97885.25;;;8.41;66.09
11041;BME280;5573;49.592;8.662;2024-02-26T00:13:05;97888.78;;;8.30;67.64
11041;BME280;5573;49.592;8.662;2024-02-26T00:15:33;97883.63;;;8.23;67.45
11041;BME280;5573;49.592;8.662;2024-02-26T00:18:01;97891.22;;;8.32;67.77
11041;BME280;5573;49.592;8.662;2024-02-26T00:20:30;97895.81;;;8.36;66.74
11041;BME280;5573;49.592;8.662;2024-02-26T00:22:59;97889.91;;;8.34;67.86
11041;BME280;5573;49.592;8.662;2024-02-26T00:25:27;97897.41;;;8.37;67.00
11041;BME280;5573;49.592;8.662;2024-02-26T00:27:55;97914.13;;;8.38;66.90
11041;BME280;5573;49.592;8.662;2024-02-26T00:30:22;97902.16;;;8.35;66.26
11041;BME280;5573;49.592;8.662;2024-02-26T00:32:51;97902.16;;;8.35;66.83
11041;BME280;5573;49.592;8.662;2024-02-26T00:35:19;97900.31;;;8.36;66.89
11041;BME280;5573;49.592;8.662;2024-02-26T00:37:47;97906.34;;;8.31;67.94
11041;BME280;5573;49.592;8.662;2024-02-26T00:40:17;97893.31;;;8.30;66.64
11041;BME280;5573;49.592;8.662;2024-02-26T00:42:44;97899.19;;;8.32;66.90
11041;BME280;5573;49.592;8.662;2024-02-26T00:45:14;97902.22;;;8.40;65.82
11041;BME280;5573;49.592;8.662;2024-02-26T00:47:43;97891.53;;;8.35;65.99
11041;BME280;5573;49.592;8.662;2024-02-26T00:50:14;97904.88;;;8.40;66.08
11041;BME280;5573;49.592;8.662;2024-02-26T00:52:42;97905.38;;;8.37;66.16
11041;BME280;5573;49.592;8.662;2024-02-26T00:55:10;97914.91;;;8.38;66.31
11041;BME280;5573;49.592;8.662;2024-02-26T00:57:39;97917.25;;;8.51;64.00
11041;BME280;5573;49.592;8.662;2024-02-26T01:00:08;97926.03;;;8.52;63.08
11041;BME280;5573;49.592;8.662;2024-02-26T01:02:36;97934.72;;;8.86;60.59
11041;BME280;5573;49.592;8.662;2024-02-26T01:05:06;97934.97;;;8.67;61.63
11041;BME280;5573;49.592;8.662;2024-02-26T01:07:33;97949.38;;;8.71;60.18
11041;BME280;5573;49.592;8.662;2024-02-26T01:10:03;97945.28;;;9.02;58.56
11041;BME280;5573;49.592;8.662;2024-02-26T01:12:32;97943.91;;;8.78;60.99
11041;BME280;5573;49.592;8.662;2024-02-26T01:15:01;97937.19;;;8.70;62.60
11041;BME280;5573;49.592;8.662;2024-02-26T01:17:30;97938.47;;;8.51;62.28
11041;BME280;5573;49.592;8.662;2024-02-26T01:19:58;97939.19;;;8.30;67.08
11041;BME280;5573;49.592;8.662;2024-02-26T01:22:26;97945.34;;;8.19;66.47
11041;BME280;5573;49.592;8.662;2024-02-26T01:24:54;97948.56;;;8.04;69.61
11041;BME280;5573;49.592;8.662;2024-02-26T01:27:23;97946.00;;;7.93;68.74
11041;BME280;5573;49.592;8.662;2024-02-26T01:29:53;97945.47;;;8.07;67.91
11041;BME280;5573;49.592;8.662;2024-02-26T01:32:22;97943.41;;;7.98;69.55
11041;BME280;5573;49.592;8.662;2024-02-26T01:34:50;97936.50;;;7.80;71.80
11041;BME280;5573;49.592;8.662;2024-02-26T01:37:18;97943.94;;;8.28;62.55
11041;BME280;5573;49.592;8.662;2024-02-26T01:39:46;97942.97;;;8.51;62.55
11041;BME280;5573;49.592;8.662;2024-02-26T01:42:14;97949.94;;;8.73;59.39
11041;BME280;5573;49.592;8.662;2024-02-26T01:44:42;97959.16;;;8.88;59.38
11041;BME280;5573;49.592;8.662;2024-02-26T01:47:11;97969.41;;;8.79;60.38
11041;BME280;5573;49.592;8.662;2024-02-26T01:49:41;97969.03;;;8.70;61.95
11041;BME280;5573;49.592;8.662;2024-02-26T01:52:09;97967.50;;;8.74;61.26
11041;BME280;5573;49.592;8.662;2024-02-26T01:54:39;97972.72;;;8.69;61.39
11041;BME280;5573;49.592;8.662;2024-02-26T01:57:08;97973.03;;;8.73;60.37
11041;BME280;5573;49.592;8.662;2024-02-26T01:59:36;97968.53;;;8.73;61.48
11041;BME280;5573;49.592;8.662;2024-02-26T02:02:07;97973.06;;;8.95;58.50
11041;BME280;5573;49.592;8.662;2024-02-26T02:04:35;97966.72;;;8.96;58.67
11041;BME280;5573;49.592;8.662;2024-02-26T02:07:05;97979.50;;;8.99;58.93
11041;BME280;5573;49.592;8.662;2024-02-26T02:09:33;97971.25;;;9.17;56.45
11041;BME280;5573;49.592;8.662;2024-02-26T02:12:01;97984.78;;;9.15;57.24
11041;BME280;5573;49.592;8.662;2024-02-26T02:14:30;97989.34;;;9.20;56.63
11041;BME280;5573;49.592;8.662;2024-02-26T02:16:58;97988.53;;;9.19;56.73
11041;BME280;5573;49.592;8.662;2024-02-26T02:19:26;97983.41;;;9.13;57.40
11041;BME280;5573;49.592;8.662;2024-02-26T02:21:55;97986.00;;;9.08;60.37
11041;BME280;5573;49.592;8.662;2024-02-26T02:24:23;97984.41;;;9.07;59.49
11041;BME280;5573;49.592;8.662;2024-02-26T02:26:51;97991.78;;;9.05;59.86
11041;BME280;5573;49.592;8.662;2024-02-26T02:29:19;97983.34;;;8.69;63.88
11041;BME280;5573;49.592;8.662;2024-02-26T02:31:46;98007.47;;;8.68;62.32
11041;BME280;5573;49.592;8.662;2024-02-26T02:34:14;97993.50;;;8.56;64.02
11041;BME280;5573;49.592;8.662;2024-02-26T02:36:51;97990.66;;;8.46;65.77
11041;BME280;5573;49.592;8.662;2024-02-26T02:39:20;97999.50;;;8.35;69.09
11041;BME280;5573;49.592;8.662;2024-02-26T02:41:49;97999.53;;;8.23;70.17
11041;BME280;5573;49.592;8.662;2024-02-26T02:44:17;97996.63;;;8.08;71.48
11041;BME280;5573;49.592;8.662;2024-02-26T02:46:44;98003.69;;;8.02;72.09
11041;BME280;5573;49.592;8.662;2024-02-26T02:49:12;97997.75;;;7.95;72.72
11041;BME280;5573;49.592;8.662;2024-02-26T02:51:41;98000.13;;;7.97;73.39
11041;BME280;5573;49.592;8.662;2024-02-26T02:54:08;98006.28;;;7.86;77.22
11041;BME280;5573;49.592;8.662;2024-02-26T02:56:37;97991.78;;;7.88;77.10
11041;BME280;5573;49.592;8.662;2024-02-26T02:59:06;97991.72;;;8.00;75.31
11041;BME280;5573;49.592;8.662;2024-02-26T03:01:33;97991.47;;;7.85;76.59
11041;BME280;5573;49.592;8.662;2024-02-26T03:06:30;97999.13;;;7.69;78.50
11041;BME280;5573;49.592;8.662;2024-02-26T03:08:58;97997.03;;;7.71;79.59
11041;BME280;5573;49.592;8.662;2024-02-26T03:11:29;97999.97;;;7.58;82.41
11041;BME280;5573;49.592;8.662;2024-02-26T03:13:59;98001.28;;;7.72;76.95
11041;BME280;5573;49.592;8.662;2024-02-26T03:16:27;98006.31;;;7.57;81.08
11041;BME280;5573;49.592;8.662;2024-02-26T03:18:55;98011.03;;;7.55;100.00
11041;BME280;5573;49.592;8.662;2024-02-26T03:21:24;61852.47;;;-142.40;100.00
11041;BME280;5573;49.592;8.662;2024-02-26T03:23:52;61852.47;;;-142.40;100.00
11041;BME280;5573;49.592;8.662;2024-02-26T03:26:20;61852.47;;;-142.40;100.00
11041;BME280;5573;49.592;8.662;2024-02-26T03:28:47;61852.47;;;-142.40;100.00
11041;BME280;5573;49.592;8.662;2024-02-26T03:31:16;61852.47;;;-142.40;100.00
11041;BME280;5573;49.592;8.662;2024-02-26T03:33:44;61852.47;;;-142.40;100.00
11041;BME280;5573;49.592;8.662;2024-02-26T03:36:12;61852.47;;;-142.40;100.00
11041;BME280;5573;49.592;8.662;2024-02-26T03:38:40;61852.47;;;-142.40;100.00
11041;BME280;5573;49.592;8.662;2024-02-26T03:41:08;61852.47;;;-142.40;100.00
11041;BME280;5573;49.592;8.662;2024-02-26T03:43:36;61852.47;;;-142.40;100.00
11041;BME280;5573;49.592;8.662;2024-02-26T03:46:04;61852.47;;;-142.40;100.00
11041;BME280;5573;49.592;8.662;2024-02-26T03:48:35;61852.47;;;-142.40;100.00
11041;BME280;5573;49.592;8.662;2024-02-26T03:51:04;61852.47;;;-142.40;100.00
11041;BME280;5573;49.592;8.662;2024-02-26T03:53:31;61852.47;;;-142.40;100.00
11041;BME280;5573;49.592;8.662;2024-02-26T03:56:03;61852.47;;;-142.40;100.00
11041;BME280;5573;49.592;8.662;2024-02-26T03:58:31;61852.47;;;-142.40;100.00
11041;BME280;5573;49.592;8.662;2024-02-26T04:00:58;61852.47;;;-142.40;100.00
11041;BME280;5573;49.592;8.662;2024-02-26T04:03:26;61852.47;;;-142.40;100.00
11041;BME280;5573;49.592;8.662;2024-02-26T04:05:55;61852.47;;;-142.40;100.00
11041;BME280;5573;49.592;8.662;2024-02-26T04:08:23;61852.47;;;-142.40;100.00
11041;BME280;5573;49.592;8.662;2024-02-26T04:10:51;61852.47;;;-142.40;100.00
11041;BME280;5573;49.592;8.662;2024-02-26T04:13:19;61852.47;;;-142.40;100.00
11041;BME280;5573;49.592;8.662;2024-02-26T04:15:47;61852.47;;;-142.40;100.00
11041;BME280;5573;49.592;8.662;2024-02-26T04:18:15;61852.47;;;-142.40;100.00
11041;BME280;5573;49.592;8.662;2024-02-26T04:20:43;61852.47;;;-142.40;100.00
11041;BME280;5573;49.592;8.662;2024-02-26T04:23:12;61852.47;;;-142.40;100.00
11041;BME280;5573;49.592;8.662;2024-02-26T04:25:40;61852.47;;;-142.40;100.00
11041;BME280;5573;49.592;8.662;2024-02-26T04:28:08;61852.47;;;-142.40;100.00
11041;BME280;5573;49.592;8.662;2024-02-26T04:30:36;61852.47;;;-142.40;100.00
11041;BME280;5573;49.592;8.662;2024-02-26T04:33:04;61852.47;;;-142.40;100.00
11041;BME280;5573;49.592;8.662;2024-02-26T04:35:32;61852.47;;;-142.40;100.00
11041;BME280;5573;49.592;8.662;2024-02-26T04:38:01;61852.47;;;-142.40;100.00
11041;BME280;5573;49.592;8.662;2024-02-26T04:40:30;61852.47;;;-142.40;100.00
11041;BME280;5573;49.592;8.662;2024-02-26T04:42:58;61852.47;;;-142.40;100.00
11041;BME280;5573;49.592;8.662;2024-02-26T04:45:25;61852.47;;;-142.40;100.00
11041;BME280;5573;49.592;8.662;2024-02-26T04:47:54;61852.47;;;-142.40;100.00
11041;BME280;5573;49.592;8.662;2024-02-26T04:50:21;61852.47;;;-142.40;100.00
11041;BME280;5573;49.592;8.662;2024-02-26T04:52:48;61852.47;;;-142.40;100.00
11041;BME280;5573;49.592;8.662;2024-02-26T04:55:17;61852.47;;;-142.40;100.00
11041;BME280;5573;49.592;8.662;2024-02-26T04:57:45;61852.47;;;-142.40;100.00
11041;BME280;5573;49.592;8.662;2024-02-26T05:00:14;61852.47;;;-142.40;100.00
11041;BME280;5573;49.592;8.662;2024-02-26T05:02:42;61852.47;;;-142.40;100.00
11041;BME280;5573;49.592;8.662;2024-02-26T05:05:10;61852.47;;;-142.40;100.00
11041;BME280;5573;49.592;8.662;2024-02-26T05:07:40;61852.47;;;-142.40;100.00
11041;BME280;5573;49.592;8.662;2024-02-26T05:10:09;61852.47;;;-142.40;100.00
11041;BME280;5573;49.592;8.662;2024-02-26T05:12:36;61852.47;;;-142.40;100.00
11041;BME280;5573;49.592;8.662;2024-02-26T05:15:07;61852.47;;;-142.40;100.00
11041;BME280;5573;49.592;8.662;2024-02-26T05:17:35;61852.47;;;-142.40;100.00
11041;BME280;5573;49.592;8.662;2024-02-26T05:20:04;61852.47;;;-142.40;100.00
11041;BME280;5573;49.592;8.662;2024-02-26T05:22:34;61852.47;;;-142.40;100.00
11041;BME280;5573;49.592;8.662;2024-02-26T05:25:02;61852.47;;;-142.40;100.00
11041;BME280;5573;49.592;8.662;2024-02-26T05:27:30;61852.47;;;-142.40;100.00
11041;BME280;5573;49.592;8.662;2024-02-26T05:29:58;61852.47;;;-142.40;100.00
11041;BME280;5573;49.592;8.662;2024-02-26T05:32:27;61852.47;;;-142.40;100.00
11041;BME280;5573;49.592;8.662;2024-02-26T05:34:55;61852.47;;;-142.40;100.00
11041;BME280;5573;49.592;8.662;2024-02-26T05:37:23;61852.47;;;-142.40;100.00
11041;BME280;5573;49.592;8.662;2024-02-26T05:39:52;61852.47;;;-142.40;100.00
11041;BME280;5573;49.592;8.662;2024-02-26T05:42:20;61852.47;;;-142.40;100.00
11041;BME280;5573;49.592;8.662;2024-02-26T05:44:48;61852.47;;;-142.40;100.00
11041;BME280;5573;49.592;8.662;2024-02-26T05:47:16;61852.47;;;-142.40;100.00
11041;BME280;5573;49.592;8.662;2024-02-26T05:49:45;61852.47;;;-142.40;100.00
11041;BME280;5573;49.592;8.662;2024-02-26T05:52:13;61852.47;;;-142.40;100.00
11041;BME280;5573;49.592;8.662;2024-02-26T05:54:41;61852.47;;;-142.40;100.00
11041;BME280;5573;49.592;8.662;2024-02-26T05:57:09;61852.47;;;-142.40;100.00
11041;BME280;5573;49.592;8.662;2024-02-26T05:59:37;61852.47;;;-142.40;100.00
11041;BME280;5573;49.592;8.662;2024-02-26T06:02:05;61852.47;;;-142.40;100.00
11041;BME280;5573;49.592;8.662;2024-02-26T06:04:33;61852.47;;;-142.40;100.00
11041;BME280;5573;49.592;8.662;2024-02-26T06:07:02;61852.47;;;-142.40;100.00
11041;BME280;5573;49.592;8.662;2024-02-26T06:09:30;61852.47;;;-142.40;100.00
11041;BME280;5573;49.592;8.662;2024-02-26T06:11:58;61852.47;;;-142.40;100.00
11041;BME280;5573;49.592;8.662;2024-02-26T06:14:26;61852.47;;;-142.40;100.00
11041;BME280;5573;49.592;8.662;2024-02-26T06:16:53;61852.47;;;-142.40;100.00
11041;BME280;5573;49.592;8.662;2024-02-26T06:19:21;61852.47;;;-142.40;100.00
11041;BME280;5573;49.592;8.662;2024-02-26T06:21:49;61852.47;;;-142.40;100.00
11041;BME280;5573;49.592;8.662;2024-02-26T06:24:19;61852.47;;;-142.40;100.00
11041;BME280;5573;49.592;8.662;2024-02-26T06:26:47;61852.47;;;-142.40;100.00
11041;BME280;5573;49.592;8.662;2024-02-26T06:29:15;61852.47;;;-142.40;100.00
11041;BME280;5573;49.592;8.662;2024-02-26T06:31:43;61852.47;;;-142.40;100.00
11041;BME280;5573;49.592;8.662;2024-02-26T06:34:10;61852.47;;;-142.40;100.00
11041;BME280;5573;49.592;8.662;2024-02-26T06:36:39;61852.47;;;-142.40;100.00
11041;BME280;5573;49.592;8.662;2024-02-26T06:39:07;61852.47;;;-142.40;100.00
11041;BME280;5573;49.592;8.662;2024-02-26T06:41:36;61852.47;;;-142.40;100.00
11041;BME280;5573;49.592;8.662;2024-02-26T06:44:05;61852.47;;;-142.40;100.00
11041;BME280;5573;49.592;8.662;2024-02-26T06:46:33;61852.47;;;-142.40;100.00
11041;BME280;5573;49.592;8.662;2024-02-26T06:49:01;61852.47;;;-142.40;100.00
11041;BME280;5573;49.592;8.662;2024-02-26T06:51:29;61852.47;;;-142.40;100.00
11041;BME280;5573;49.592;8.662;2024-02-26T06:53:57;61852.47;;;-142.40;100.00
11041;BME280;5573;49.592;8.662;2024-02-26T06:56:25;61852.47;;;-142.40;100.00
11041;BME280;5573;49.592;8.662;2024-02-26T06:58:54;61852.47;;;-142.40;100.00
11041;BME280;5573;49.592;8.662;2024-02-26T07:01:22;61852.47;;;-142.40;100.00
11041;BME280;5573;49.592;8.662;2024-02-26T07:03:50;61852.47;;;-142.40;100.00
11041;BME280;5573;49.592;8.662;2024-02-26T07:06:18;61852.47;;;-142.40;100.00
11041;BME280;5573;49.592;8.662;2024-02-26T07:08:47;61852.47;;;-142.40;100.00
11041;BME280;5573;49.592;8.662;2024-02-26T07:11:14;61852.47;;;-142.40;100.00
11041;BME280;5573;49.592;8.662;2024-02-26T07:13:42;61852.47;;;-142.40;100.00
11041;BME280;5573;49.592;8.662;2024-02-26T07:16:11;61852.47;;;-142.40;100.00
11041;BME280;5573;49.592;8.662;2024-02-26T07:18:39;61852.47;;;-142.40;100.00
11041;BME280;5573;49.592;8.662;2024-02-26T07:21:07;61852.47;;;-142.40;100.00
11041;BME280;5573;49.592;8.662;2024-02-26T07:23:36;61852.47;;;-142.40;100.00
11041;BME280;5573;49.592;8.662;2024-02-26T07:26:03;61852.47;;;-142.40;100.00
11041;BME280;5573;49.592;8.662;2024-02-26T07:28:31;61852.47;;;-142.40;100.00
11041;BME280;5573;49.592;8.662;2024-02-26T07:30:59;61852.47;;;-142.40;100.00
11041;BME280;5573;49.592;8.662;2024-02-26T07:33:28;61852.47;;;-142.40;100.00
11041;BME280;5573;49.592;8.662;2024-02-26T07:35:56;61852.47;;;-142.40;100.00
11041;BME280;5573;49.592;8.662;2024-02-26T07:38:24;61852.47;;;-142.40;100.00
11041;BME280;5573;49.592;8.662;2024-02-26T07:41:07;61852.47;;;-142.40;100.00
11041;BME280;5573;49.592;8.662;2024-02-26T07:43:35;61852.47;;;-142.40;100.00
11041;BME280;5573;49.592;8.662;2024-02-26T07:46:03;61852.47;;;-142.40;100.00
11041;BME280;5573;49.592;8.662;2024-02-26T07:48:32;61852.47;;;-142.40;100.00
11041;BME280;5573;49.592;8.662;2024-02-26T07:51:01;61852.47;;;-142.40;100.00
11041;BME280;5573;49.592;8.662;2024-02-26T07:53:30;61852.47;;;-142.40;100.00
11041;BME280;5573;49.592;8.662;2024-02-26T07:55:57;61852.47;;;-142.40;100.00
11041;BME280;5573;49.592;8.662;2024-02-26T07:58:25;61852.47;;;-142.40;100.00
11041;BME280;5573;49.592;8.662;2024-02-26T08:00:53;61852.47;;;-142.40;100.00
11041;BME280;5573;49.592;8.662;2024-02-26T08:03:21;61852.47;;;-142.40;100.00
11041;BME280;5573;49.592;8.662;2024-02-26T08:05:50;61852.47;;;-142.40;100.00
11041;BME280;5573;49.592;8.662;2024-02-26T08:08:18;61852.47;;;-142.40;100.00
11041;BME280;5573;49.592;8.662;2024-02-26T08:10:46;61852.47;;;-142.40;100.00
11041;BME280;5573;49.592;8.662;2024-02-26T08:13:13;61852.47;;;-142.40;100.00
11041;BME280;5573;49.592;8.662;2024-02-26T08:15:41;61852.47;;;-142.40;100.00
11041;BME280;5573;49.592;8.662;2024-02-26T08:18:09;61852.47;;;-142.40;100.00
11041;BME280;5573;49.592;8.662;2024-02-26T08:20:37;61852.47;;;-142.40;100.00
11041;BME280;5573;49.592;8.662;2024-02-26T08:23:06;61852.47;;;-142.40;100.00
11041;BME280;5573;49.592;8.662;2024-02-26T08:25:34;61852.47;;;-142.40;100.00
11041;BME280;5573;49.592;8.662;2024-02-26T08:28:02;61852.47;;;-142.40;100.00
11041;BME280;5573;49.592;8.662;2024-02-26T08:30:29;61852.47;;;-142.40;100.00
11041;BME280;5573;49.592;8.662;2024-02-26T08:32:57;61852.47;;;-142.40;100.00
11041;BME280;5573;49.592;8.662;2024-02-26T08:35:25;61852.47;;;-142.40;100.00
11041;BME280;5573;49.592;8.662;2024-02-26T08:37:53;61852.47;;;-142.40;100.00
11041;BME280;5573;49.592;8.662;2024-02-26T08:40:22;61852.47;;;-142.40;100.00
11041;BME280;5573;49.592;8.662;2024-02-26T08:42:50;61852.47;;;-142.40;100.00
11041;BME280;5573;49.592;8.662;2024-02-26T08:45:18;61852.47;;;-142.40;100.00
11041;BME280;5573;49.592;8.662;2024-02-26T08:47:46;61852.47;;;-142.40;100.00
11041;BME280;5573;49.592;8.662;2024-02-26T08:50:14;61852.47;;;-142.40;100.00
11041;BME280;5573;49.592;8.662;2024-02-26T08:52:42;61852.47;;;-142.40;100.00
11041;BME280;5573;49.592;8.662;2024-02-26T08:55:10;61852.47;;;-142.40;100.00
11041;BME280;5573;49.592;8.662;2024-02-26T08:57:41;61852.47;;;-142.40;100.00
11041;BME280;5573;49.592;8.662;2024-02-26T09:00:10;61852.47;;;-142.40;100.00
11041;BME280;5573;49.592;8.662;2024-02-26T09:02:39;61852.47;;;-142.40;100.00
11041;BME280;5573;49.592;8.662;2024-02-26T09:05:07;61852.47;;;-142.40;100.00
11041;BME280;5573;49.592;8.662;2024-02-26T09:07:34;61852.47;;;-142.40;100.00
11041;BME280;5573;49.592;8.662;2024-02-26T09:10:04;61852.47;;;-142.40;100.00
11041;BME280;5573;49.592;8.662;2024-02-26T09:12:32;61852.47;;;-142.40;100.00
11041;BME280;5573;49.592;8.662;2024-02-26T09:15:01;61852.47;;;-142.40;100.00
11041;BME280;5573;49.592;8.662;2024-02-26T09:17:29;61852.47;;;-142.40;100.00
11041;BME280;5573;49.592;8.662;2024-02-26T09:19:57;61852.47;;;-142.40;100.00
11041;BME280;5573;49.592;8.662;2024-02-26T09:22:24;61852.47;;;-142.40;100.00
11041;BME280;5573;49.592;8.662;2024-02-26T09:24:52;61852.47;;;-142.40;100.00
11041;BME280;5573;49.592;8.662;2024-02-26T09:27:20;61852.47;;;-142.40;100.00
11041;BME280;5573;49.592;8.662;2024-02-26T09:29:47;61852.47;;;-142.40;100.00
11041;BME280;5573;49.592;8.662;2024-02-26T09:32:17;61852.47;;;-142.40;100.00
11041;BME280;5573;49.592;8.662;2024-02-26T09:34:44;61852.47;;;-142.40;100.00
11041;BME280;5573;49.592;8.662;2024-02-26T09:37:12;61852.47;;;-142.40;100.00
11041;BME280;5573;49.592;8.662;2024-02-26T09:39:47;61852.47;;;-142.40;100.00
11041;BME280;5573;49.592;8.662;2024-02-26T09:42:18;61852.47;;;-142.40;100.00
11041;BME280;5573;49.592;8.662;2024-02-26T09:44:47;61852.47;;;-142.40;100.00
11041;BME280;5573;49.592;8.662;2024-02-26T09:47:21;61852.47;;;-142.40;100.00
11041;BME280;5573;49.592;8.662;2024-02-26T09:49:51;61852.47;;;-142.40;100.00
11041;BME280;5573;49.592;8.662;2024-02-26T09:52:21;61852.47;;;-142.40;100.00
11041;BME280;5573;49.592;8.662;2024-02-26T09:54:49;61852.47;;;-142.40;100.00
11041;BME280;5573;49.592;8.662;2024-02-26T09:57:17;61852.47;;;-142.40;100.00
11041;BME280;5573;49.592;8.662;2024-02-26T09:59:46;61852.47;;;-142.40;100.00
11041;BME280;5573;49.592;8.662;2024-02-26T10:02:17;61852.47;;;-142.40;100.00
11041;BME280;5573;49.592;8.662;2024-02-26T10:04:48;61852.47;;;-142.40;100.00
11041;BME280;5573;49.592;8.662;2024-02-26T10:07:18;61852.47;;;-142.40;100.00
11041;BME280;5573;49.592;8.662;2024-02-26T10:09:47;61852.47;;;-142.40;100.00
11041;BME280;5573;49.592;8.662;2024-02-26T10:12:15;61852.47;;;-142.40;100.00
11041;BME280;5573;49.592;8.662;2024-02-26T10:14:44;61852.47;;;-142.40;100.00
11041;BME280;5573;49.592;8.662;2024-02-26T10:17:12;61852.47;;;-142.40;100.00
11041;BME280;5573;49.592;8.662;2024-02-26T10:19:40;61852.47;;;-142.40;100.00
11041;BME280;5573;49.592;8.662;2024-02-26T10:22:09;61852.47;;;-142.40;100.00
11041;BME280;5573;49.592;8.662;2024-02-26T10:24:37;61852.47;;;-142.40;100.00
11041;BME280;5573;49.592;8.662;2024-02-26T10:27:04;61852.47;;;-142.40;100.00
11041;BME280;5573;49.592;8.662;2024-02-26T10:29:32;61852.47;;;-142.40;100.00
11041;BME280;5573;49.592;8.662;2024-02-26T10:32:01;61852.47;;;-142.40;100.00
11041;BME280;5573;49.592;8.662;2024-02-26T10:34:28;61852.47;;;-142.40;100.00
11041;BME280;5573;49.592;8.662;2024-02-26T10:36:56;61852.47;;;-142.40;100.00
11041;BME280;5573;49.592;8.662;2024-02-26T10:39:26;61852.47;;;-142.40;100.00
11041;BME280;5573;49.592;8.662;2024-02-26T10:41:53;61852.47;;;-142.40;100.00
11041;BME280;5573;49.592;8.662;2024-02-26T10:44:21;61852.47;;;-142.40;100.00
11041;BME280;5573;49.592;8.662;2024-02-26T10:46:49;61852.47;;;-142.40;100.00
11041;BME280;5573;49.592;8.662;2024-02-26T10:49:17;61852.47;;;-142.40;100.00
11041;BME280;5573;49.592;8.662;2024-02-26T10:51:52;61852.47;;;-142.40;100.00
11041;BME280;5573;49.592;8.662;2024-02-26T10:54:24;61852.47;;;-142.40;100.00
11041;BME280;5573;49.592;8.662;2024-02-26T10:56:55;61852.47;;;-142.40;100.00
11041;BME280;5573;49.592;8.662;2024-02-26T10:59:24;61852.47;;;-142.40;100.00
11041;BME280;5573;49.592;8.662;2024-02-26T11:01:52;61852.47;;;-142.40;100.00
11041;BME280;5573;49.592;8.662;2024-02-26T11:04:22;61852.47;;;-142.40;100.00
11041;BME280;5573;49.592;8.662;2024-02-26T11:06:54;61852.47;;;-142.40;100.00
11041;BME280;5573;49.592;8.662;2024-02-26T11:09:25;61852.47;;;-142.40;100.00
11041;BME280;5573;49.592;8.662;2024-02-26T11:11:57;61852.47;;;-142.40;100.00
11041;BME280;5573;49.592;8.662;2024-02-26T11:14:26;61852.47;;;-142.40;100.00
11041;BME280;5573;49.592;8.662;2024-02-26T11:16:55;61852.47;;;-142.40;100.00
11041;BME280;5573;49.592;8.662;2024-02-26T11:19:24;61852.47;;;-142.40;100.00
11041;BME280;5573;49.592;8.662;2024-02-26T11:21:52;61852.47;;;-142.40;100.00
11041;BME280;5573;49.592;8.662;2024-02-26T11:24:20;61852.47;;;-142.40;100.00
11041;BME280;5573;49.592;8.662;2024-02-26T11:26:51;61852.47;;;-142.40;100.00
11041;BME280;5573;49.592;8.662;2024-02-26T11:29:32;61852.47;;;-142.40;100.00
11041;BME280;5573;49.592;8.662;2024-02-26T11:32:00;61852.47;;;-142.40;100.00
11041;BME280;5573;49.592;8.662;2024-02-26T11:34:29;61852.47;;;-142.40;100.00
11041;BME280;5573;49.592;8.662;2024-02-26T11:36:57;61852.47;;;-142.40;100.00
11041;BME280;5573;49.592;8.662;2024-02-26T11:39:25;61852.47;;;-142.40;100.00
11041;BME280;5573;49.592;8.662;2024-02-26T11:41:53;61852.47;;;-142.40;100.00
11041;BME280;5573;49.592;8.662;2024-02-26T11:44:29;61852.47;;;-142.40;100.00
11041;BME280;5573;49.592;8.662;2024-02-26T11:46:57;61852.47;;;-142.40;100.00
11041;BME280;5573;49.592;8.662;2024-02-26T11:49:30;61852.47;;;-142.40;100.00
11041;BME280;5573;49.592;8.662;2024-02-26T11:51:59;61852.47;;;-142.40;100.00
11041;BME280;5573;49.592;8.662;2024-02-26T11:54:47;61852.47;;;-142.40;100.00
11041;BME280;5573;49.592;8.662;2024-02-26T11:57:23;61852.47;;;-142.40;100.00
11041;BME280;5573;49.592;8.662;2024-02-26T11:59:53;61852.47;;;-142.40;100.00
11041;BME280;5573;49.592;8.662;2024-02-26T12:02:42;61852.47;;;-142.40;100.00
11041;BME280;5573;49.592;8.662;2024-02-26T12:05:12;61852.47;;;-142.40;100.00
11041;BME280;5573;49.592;8.662;2024-02-26T12:07:43;61852.47;;;-142.40;100.00
11041;BME280;5573;49.592;8.662;2024-02-26T12:10:23;61852.47;;;-142.40;100.00
11041;BME280;5573;49.592;8.662;2024-02-26T12:12:54;61852.47;;;-142.40;100.00
11041;BME280;5573;49.592;8.662;2024-02-26T12:15:24;61852.47;;;-142.40;100.00
11041;BME280;5573;49.592;8.662;2024-02-26T12:17:53;61852.47;;;-142.40;100.00
11041;BME280;5573;49.592;8.662;2024-02-26T12:20:21;61852.47;;;-142.40;100.00
11041;BME280;5573;49.592;8.662;2024-02-26T12:22:49;61852.47;;;-142.40;100.00
11041;BME280;5573;49.592;8.662;2024-02-26T12:25:21;61852.47;;;-142.40;100.00
11041;BME280;5573;49.592;8.662;2024-02-26T12:27:49;61852.47;;;-142.40;100.00
11041;BME280;5573;49.592;8.662;2024-02-26T12:30:17;61852.47;;;-142.40;100.00
11041;BME280;5573;49.592;8.662;2024-02-26T12:32:47;61852.47;;;-142.40;100.00
11041;BME280;5573;49.592;8.662;2024-02-26T12:35:16;61852.47;;;-142.40;100.00
11041;BME280;5573;49.592;8.662;2024-02-26T12:37:44;61852.47;;;-142.40;100.00
11041;BME280;5573;49.592;8.662;2024-02-26T12:40:14;61852.47;;;-142.40;100.00
11041;BME280;5573;49.592;8.662;2024-02-26T12:42:42;61852.47;;;-142.40;100.00
11041;BME280;5573;49.592;8.662;2024-02-26T12:45:11;61852.47;;;-142.40;100.00
11041;BME280;5573;49.592;8.662;2024-02-26T12:47:40;61852.47;;;-142.40;100.00
11041;BME280;5573;49.592;8.662;2024-02-26T12:50:10;61852.47;;;-142.40;100.00
11041;BME280;5573;49.592;8.662;2024-02-26T12:52:41;61852.47;;;-142.40;100.00
11041;BME280;5573;49.592;8.662;2024-02-26T12:55:13;61852.47;;;-142.40;100.00
11041;BME280;5573;49.592;8.662;2024-02-26T12:57:41;61852.47;;;-142.40;100.00
11041;BME280;5573;49.592;8.662;2024-02-26T13:00:13;61852.47;;;-142.40;100.00